sensor_id;sensor_type;location;lat;lon;timestamp;pressure;altitude;pressure_sealevel;temperature;humidity
70445;BME280;57902;49.638;11.070;2023-05-02T00:00:54;98286.41;;;6.95;100.00
70445;BME280;57902;49.638;11.070;2023-05-02T00:03:21;98279.59;;;6.93;100.00
70445;BME280;57902;49.638;11.070;2023-05-02T00:05:48;98266.84;;;6.90;100.00
70445;BME280;57902;49.638;11.070;2023-05-02T00:08:15;98275.41;;;6.89;100.00
70445;BME280;57902;49.638;11.070;2023-05-02T00:10:41;98282.28;;;6.87;100.00
70445;BME280;57902;49.638;11.070;2023-05-02T00:13:08;98271.22;;;6.85;100.00
70445;BME280;57902;49.638;11.070;2023-05-02T00:15:38;98276.34;;;6.83;100.00
70445;BME280;57902;49.638;11.070;2023-05-02T00:18:05;98270.31;;;6.86;100.00
70445;BME280;57902;49.638;11.070;2023-05-02T00:20:31;98262.59;;;6.89;100.00
70445;BME280;57902;49.638;11.070;2023-05-02T00:22:58;98263.47;;;6.88;100.00
70445;BME280;57902;49.638;11.070;2023-05-02T00:25:25;98270.31;;;6.86;100.00
70445;BME280;57902;49.638;11.070;2023-05-02T00:27:51;98269.56;;;6.79;100.00
70445;BME280;57902;49.638;11.070;2023-05-02T00:30:18;98262.69;;;6.81;100.00
70445;BME280;57902;49.638;11.070;2023-05-02T00:32:46;98268.75;;;6.75;100.00
70445;BME280;57902;49.638;11.070;2023-05-02T00:35:13;98261.97;;;6.74;100.00
70445;BME280;57902;49.638;11.070;2023-05-02T00:37:39;98268.00;;;6.70;100.00
70445;BME280;57902;49.638;11.070;2023-05-02T00:40:06;98272.31;;;6.68;100.00
70445;BME280;57902;49.638;11.070;2023-05-02T00:42:33;98265.47;;;6.69;100.00
70445;BME280;57902;49.638;11.070;2023-05-02T00:45:03;98270.56;;;6.69;100.00
70445;BME280;57902;49.638;11.070;2023-05-02T00:47:32;98263.78;;;6.66;100.00
70445;BME280;57902;49.638;11.070;2023-05-02T00:49:59;98262.06;;;6.65;100.00
70445;BME280;57902;49.638;11.070;2023-05-02T00:52:27;98258.72;;;6.61;100.00
70445;BME280;57902;49.638;11.070;2023-05-02T00:54:54;98259.59;;;6.59;100.00
70445;BME280;57902;49.638;11.070;2023-05-02T00:57:21;98260.47;;;6.59;100.00
70445;BME280;57902;49.638;11.070;2023-05-02T00:59:49;98266.50;;;6.55;100.00
70445;BME280;57902;49.638;11.070;2023-05-02T01:05:14;98258.84;;;6.54;100.00
70445;BME280;57902;49.638;11.070;2023-05-02T01:11:02;98254.66;;;6.46;100.00
70445;BME280;57902;49.638;11.070;2023-05-02T01:13:33;98264.91;;;6.46;100.00
70445;BME280;57902;49.638;11.070;2023-05-02T01:16:02;98258.91;;;6.49;100.00
70445;BME280;57902;49.638;11.070;2023-05-02T01:18:32;98264.88;;;6.48;100.00
70445;BME280;57902;49.638;11.070;2023-05-02T01:21:05;98267.41;;;6.50;100.00
70445;BME280;57902;49.638;11.070;2023-05-02T01:26:50;98267.34;;;6.54;100.00
70445;BME280;57902;49.638;11.070;2023-05-02T01:29:19;98267.34;;;6.56;100.00
70445;BME280;57902;49.638;11.070;2023-05-02T01:31:49;98261.41;;;6.54;100.00
70445;BME280;57902;49.638;11.070;2023-05-02T01:34:17;98257.19;;;6.50;100.00
70445;BME280;57902;49.638;11.070;2023-05-02T01:36:46;98262.31;;;6.50;100.00
70445;BME280;57902;49.638;11.070;2023-05-02T01:39:20;98259.75;;;6.48;100.00
70445;BME280;57902;49.638;11.070;2023-05-02T01:41:49;98260.59;;;6.48;100.00
70445;BME280;57902;49.638;11.070;2023-05-02T01:44:21;98259.66;;;6.56;100.00
70445;BME280;57902;49.638;11.070;2023-05-02T01:46:49;98263.84;;;6.61;100.00
70445;BME280;57902;49.638;11.070;2023-05-02T01:49:17;98269.09;;;6.54;100.00
70445;BME280;57902;49.638;11.070;2023-05-02T01:51:48;98275.84;;;6.59;100.00
70445;BME280;57902;49.638;11.070;2023-05-02T01:54:17;98274.94;;;6.62;100.00
70445;BME280;57902;49.638;11.070;2023-05-02T01:56:46;98280.06;;;6.62;100.00
70445;BME280;57902;49.638;11.070;2023-05-02T01:59:18;98285.13;;;6.68;100.00
70445;BME280;57902;49.638;11.070;2023-05-02T02:01:45;98285.19;;;6.60;100.00
70445;BME280;57902;49.638;11.070;2023-05-02T02:04:13;98295.44;;;6.60;100.00
70445;BME280;57902;49.638;11.070;2023-05-02T02:06:47;98298.03;;;6.59;100.00
70445;BME280;57902;49.638;11.070;2023-05-02T02:09:16;98298.91;;;6.58;100.00
70445;BME280;57902;49.638;11.070;2023-05-02T02:11:46;98303.22;;;6.54;100.00
70445;BME280;57902;49.638;11.070;2023-05-02T02:14:21;98304.09;;;6.50;100.00
70445;BME280;57902;49.638;11.070;2023-05-02T02:16:53;98306.66;;;6.52;100.00
70445;BME280;57902;49.638;11.070;2023-05-02T02:19:30;98309.28;;;6.45;100.00
70445;BME280;57902;49.638;11.070;2023-05-02T02:21:57;98306.84;;;6.38;100.00
70445;BME280;57902;49.638;11.070;2023-05-02T02:24:25;98300.13;;;6.29;100.00
70445;BME280;57902;49.638;11.070;2023-05-02T02:26:55;98304.41;;;6.27;100.00
70445;BME280;57902;49.638;11.070;2023-05-02T02:29:21;98300.19;;;6.24;100.00
70445;BME280;57902;49.638;11.070;2023-05-02T02:31:48;98309.56;;;6.24;100.00
70445;BME280;57902;49.638;11.070;2023-05-02T02:34:14;98313.00;;;6.21;100.00
70445;BME280;57902;49.638;11.070;2023-05-02T02:39:38;98314.03;;;6.03;100.00
70445;BME280;57902;49.638;11.070;2023-05-02T02:45:04;98312.34;;;6.05;100.00
70445;BME280;57902;49.638;11.070;2023-05-02T02:47:43;98315.75;;;6.04;100.00
70445;BME280;57902;49.638;11.070;2023-05-02T02:50:29;98318.25;;;6.09;100.00
70445;BME280;57902;49.638;11.070;2023-05-02T02:55:40;98324.31;;;6.00;100.00
70445;BME280;57902;49.638;11.070;2023-05-02T02:58:19;98325.22;;;5.98;100.00
70445;BME280;57902;49.638;11.070;2023-05-02T03:00:47;98324.34;;;5.94;100.00
70445;BME280;57902;49.638;11.070;2023-05-02T03:03:16;98328.66;;;5.92;100.00
70445;BME280;57902;49.638;11.070;2023-05-02T03:05:44;98332.03;;;5.94;100.00
70445;BME280;57902;49.638;11.070;2023-05-02T03:08:11;98342.25;;;5.94;100.00
70445;BME280;57902;49.638;11.070;2023-05-02T03:10:39;98347.34;;;6.00;100.00
70445;BME280;57902;49.638;11.070;2023-05-02T03:13:05;98349.13;;;5.90;100.00
70445;BME280;57902;49.638;11.070;2023-05-02T03:18:18;98352.59;;;5.86;100.00
70445;BME280;57902;49.638;11.070;2023-05-02T03:20:45;98359.44;;;5.81;100.00
70445;BME280;57902;49.638;11.070;2023-05-02T03:23:11;98361.16;;;5.82;100.00
70445;BME280;57902;49.638;11.070;2023-05-02T03:25:38;98358.56;;;5.84;100.00
70445;BME280;57902;49.638;11.070;2023-05-02T03:28:04;98367.06;;;5.89;100.00
70445;BME280;57902;49.638;11.070;2023-05-02T03:30:30;98365.34;;;5.88;100.00
70445;BME280;57902;49.638;11.070;2023-05-02T03:32:57;98373.94;;;5.81;100.00
70445;BME280;57902;49.638;11.070;2023-05-02T03:35:26;98367.09;;;5.83;100.00
70445;BME280;57902;49.638;11.070;2023-05-02T03:37:53;98366.34;;;5.74;100.00
70445;BME280;57902;49.638;11.070;2023-05-02T03:40:19;98372.31;;;5.73;100.00
70445;BME280;57902;49.638;11.070;2023-05-02T03:42:47;98367.16;;;5.78;100.00
70445;BME280;57902;49.638;11.070;2023-05-02T03:45:13;98370.53;;;5.82;100.00
70445;BME280;57902;49.638;11.070;2023-05-02T03:47:40;98371.38;;;5.84;100.00
70445;BME280;57902;49.638;11.070;2023-05-02T03:50:07;98366.19;;;5.88;100.00
70445;BME280;57902;49.638;11.070;2023-05-02T03:52:33;98374.75;;;5.89;100.00
70445;BME280;57902;49.638;11.070;2023-05-02T03:55:00;98373.00;;;5.92;100.00
70445;BME280;57902;49.638;11.070;2023-05-02T03:57:30;98373.81;;;5.99;100.00
70445;BME280;57902;49.638;11.070;2023-05-02T03:59:56;98371.22;;;6.04;100.00
70445;BME280;57902;49.638;11.070;2023-05-02T04:02:24;98386.53;;;6.07;100.00
70445;BME280;57902;49.638;11.070;2023-05-02T04:04:50;98400.09;;;6.15;100.00
70445;BME280;57902;49.638;11.070;2023-05-02T04:07:17;98394.91;;;6.23;100.00
70445;BME280;57902;49.638;11.070;2023-05-02T04:09:44;98393.97;;;6.32;100.00
70445;BME280;57902;49.638;11.070;2023-05-02T04:12:11;98399.88;;;6.37;100.00
70445;BME280;57902;49.638;11.070;2023-05-02T04:14:38;98399.03;;;6.36;100.00
70445;BME280;57902;49.638;11.070;2023-05-02T04:17:04;98409.31;;;6.33;100.00
70445;BME280;57902;49.638;11.070;2023-05-02T04:19:33;98411.91;;;6.30;100.00
70445;BME280;57902;49.638;11.070;2023-05-02T04:22:01;98419.59;;;6.28;100.00
70445;BME280;57902;49.638;11.070;2023-05-02T04:24:27;98411.03;;;6.31;100.00
70445;BME280;57902;49.638;11.070;2023-05-02T04:26:54;98418.66;;;6.36;100.00
70445;BME280;57902;49.638;11.070;2023-05-02T04:29:20;98416.00;;;6.46;100.00
70445;BME280;57902;49.638;11.070;2023-05-02T04:31:49;98414.28;;;6.45;100.00
70445;BME280;57902;49.638;11.070;2023-05-02T04:34:16;98415.13;;;6.47;100.00
70445;BME280;57902;49.638;11.070;2023-05-02T04:36:46;98424.47;;;6.52;100.00
70445;BME280;57902;49.638;11.070;2023-05-02T04:39:12;98423.53;;;6.57;100.00
70445;BME280;57902;49.638;11.070;2023-05-02T04:41:39;98429.50;;;6.61;100.00
70445;BME280;57902;49.638;11.070;2023-05-02T04:44:05;98440.50;;;6.68;100.00
70445;BME280;57902;49.638;11.070;2023-05-02T04:46:32;98440.41;;;6.78;100.00
70445;BME280;57902;49.638;11.070;2023-05-02T04:48:59;98446.28;;;6.85;100.00
70445;BME280;57902;49.638;11.070;2023-05-02T04:51:25;98448.78;;;6.90;100.00
70445;BME280;57902;49.638;11.070;2023-05-02T04:53:53;98451.28;;;6.94;100.00
70445;BME280;57902;49.638;11.070;2023-05-02T04:56:25;98447.81;;;7.00;100.00
70445;BME280;57902;49.638;11.070;2023-05-02T04:58:55;98454.56;;;7.07;100.00
70445;BME280;57902;49.638;11.070;2023-05-02T05:01:21;98457.88;;;7.15;100.00
70445;BME280;57902;49.638;11.070;2023-05-02T05:03:49;98455.22;;;7.22;100.00
70445;BME280;57902;49.638;11.070;2023-05-02T05:06:16;98466.25;;;7.30;100.00
70445;BME280;57902;49.638;11.070;2023-05-02T05:08:42;98457.59;;;7.37;100.00
70445;BME280;57902;49.638;11.070;2023-05-02T05:11:11;98474.78;;;7.29;100.00
70445;BME280;57902;49.638;11.070;2023-05-02T05:13:37;98481.59;;;7.33;100.00
70445;BME280;57902;49.638;11.070;2023-05-02T05:16:04;98480.75;;;7.29;100.00
70445;BME280;57902;49.638;11.070;2023-05-02T05:18:30;98477.38;;;7.29;100.00
70445;BME280;57902;49.638;11.070;2023-05-02T05:20:57;98485.88;;;7.31;100.00
70445;BME280;57902;49.638;11.070;2023-05-02T05:23:24;98473.88;;;7.34;100.00
70445;BME280;57902;49.638;11.070;2023-05-02T05:25:50;98476.50;;;7.30;100.00
70445;BME280;57902;49.638;11.070;2023-05-02T05:28:17;98478.09;;;7.39;100.00
70445;BME280;57902;49.638;11.070;2023-05-02T05:30:44;98475.38;;;7.49;100.00
70445;BME280;57902;49.638;11.070;2023-05-02T05:33:10;98477.84;;;7.56;100.00
70445;BME280;57902;49.638;11.070;2023-05-02T05:35:37;98487.25;;;7.57;100.00
70445;BME280;57902;49.638;11.070;2023-05-02T05:38:03;98481.16;;;7.64;100.00
70445;BME280;57902;49.638;11.070;2023-05-02T05:40:29;98486.97;;;7.77;100.00
70445;BME280;57902;49.638;11.070;2023-05-02T05:42:56;98495.38;;;7.85;100.00
70445;BME280;57902;49.638;11.070;2023-05-02T05:45:22;98497.88;;;7.89;100.00
70445;BME280;57902;49.638;11.070;2023-05-02T05:47:49;98501.22;;;7.95;100.00
70445;BME280;57902;49.638;11.070;2023-05-02T05:50:15;98505.44;;;8.00;100.00
70445;BME280;57902;49.638;11.070;2023-05-02T05:52:42;98511.41;;;7.99;100.00
70445;BME280;57902;49.638;11.070;2023-05-02T05:55:08;98516.50;;;8.02;100.00
70445;BME280;57902;49.638;11.070;2023-05-02T05:57:35;98513.09;;;8.02;100.00
70445;BME280;57902;49.638;11.070;2023-05-02T06:00:01;98525.03;;;8.06;100.00
70445;BME280;57902;49.638;11.070;2023-05-02T06:02:29;98527.66;;;8.00;100.00
70445;BME280;57902;49.638;11.070;2023-05-02T06:04:55;98525.03;;;8.06;100.00
70445;BME280;57902;49.638;11.070;2023-05-02T06:07:22;98527.53;;;8.09;100.00
70445;BME280;57902;49.638;11.070;2023-05-02T06:09:48;98537.75;;;8.12;100.00
70445;BME280;57902;49.638;11.070;2023-05-02T06:12:14;98541.97;;;8.16;100.00
70445;BME280;57902;49.638;11.070;2023-05-02T06:14:41;98544.53;;;8.15;100.00
70445;BME280;57902;49.638;11.070;2023-05-02T06:17:10;98550.41;;;8.23;100.00
70445;BME280;57902;49.638;11.070;2023-05-02T06:19:43;98557.41;;;8.13;100.00
70445;BME280;57902;49.638;11.070;2023-05-02T06:22:11;98557.47;;;8.10;100.00
70445;BME280;57902;49.638;11.070;2023-05-02T06:24:39;98562.53;;;8.13;100.00
70445;BME280;57902;49.638;11.070;2023-05-02T06:27:05;98569.38;;;8.14;100.00
70445;BME280;57902;49.638;11.070;2023-05-02T06:29:32;98578.66;;;8.24;100.00
70445;BME280;57902;49.638;11.070;2023-05-02T06:31:58;98581.34;;;8.17;100.00
70445;BME280;57902;49.638;11.070;2023-05-02T06:34:25;98577.06;;;8.16;100.00
70445;BME280;57902;49.638;11.070;2023-05-02T06:36:54;98583.13;;;8.10;100.00
70445;BME280;57902;49.638;11.070;2023-05-02T06:39:23;98584.97;;;8.03;100.00
70445;BME280;57902;49.638;11.070;2023-05-02T06:41:50;98596.88;;;8.09;100.00
70445;BME280;57902;49.638;11.070;2023-05-02T06:44:16;98598.47;;;8.15;100.00
70445;BME280;57902;49.638;11.070;2023-05-02T06:46:43;98599.38;;;8.14;100.00
70445;BME280;57902;49.638;11.070;2023-05-02T06:49:09;98595.91;;;8.15;100.00
70445;BME280;57902;49.638;11.070;2023-05-02T06:51:36;98608.69;;;8.21;100.00
70445;BME280;57902;49.638;11.070;2023-05-02T06:54:02;98601.72;;;8.28;100.00
70445;BME280;57902;49.638;11.070;2023-05-02T06:56:29;98613.66;;;8.30;100.00
70445;BME280;57902;49.638;11.070;2023-05-02T06:58:56;98617.00;;;8.37;100.00
70445;BME280;57902;49.638;11.070;2023-05-02T07:01:22;98615.13;;;8.48;100.00
70445;BME280;57902;49.638;11.070;2023-05-02T07:03:49;98619.31;;;8.54;100.00
70445;BME280;57902;49.638;11.070;2023-05-02T07:06:16;98623.44;;;8.64;100.00
70445;BME280;57902;49.638;11.070;2023-05-02T07:08:42;98630.31;;;8.64;100.00
70445;BME280;57902;49.638;11.070;2023-05-02T07:11:09;98631.00;;;8.73;100.00
70445;BME280;57902;49.638;11.070;2023-05-02T07:13:35;98631.72;;;8.82;100.00
70445;BME280;57902;49.638;11.070;2023-05-02T07:16:02;98632.50;;;8.87;100.00
70445;BME280;57902;49.638;11.070;2023-05-02T07:18:28;98634.81;;;9.01;100.00
70445;BME280;57902;49.638;11.070;2023-05-02T07:20:55;98632.19;;;9.04;100.00
70445;BME280;57902;49.638;11.070;2023-05-02T07:23:21;98640.56;;;9.15;100.00
70445;BME280;57902;49.638;11.070;2023-05-02T07:25:51;98634.38;;;9.25;100.00
70445;BME280;57902;49.638;11.070;2023-05-02T07:28:17;98641.16;;;9.31;100.00
70445;BME280;57902;49.638;11.070;2023-05-02T07:30:44;98646.19;;;9.36;100.00
70445;BME280;57902;49.638;11.070;2023-05-02T07:33:11;98648.88;;;9.31;100.00
70445;BME280;57902;49.638;11.070;2023-05-02T07:35:41;98654.59;;;9.44;100.00
70445;BME280;57902;49.638;11.070;2023-05-02T07:38:07;98660.63;;;9.44;100.00
70445;BME280;57902;49.638;11.070;2023-05-02T07:40:36;98657.78;;;9.57;100.00
70445;BME280;57902;49.638;11.070;2023-05-02T07:43:03;98661.97;;;9.62;100.00
70445;BME280;57902;49.638;11.070;2023-05-02T07:45:33;98659.31;;;9.67;100.00
70445;BME280;57902;49.638;11.070;2023-05-02T07:48:00;98657.59;;;9.68;100.00
70445;BME280;57902;49.638;11.070;2023-05-02T07:50:27;98657.41;;;9.77;100.00
70445;BME280;57902;49.638;11.070;2023-05-02T07:52:54;98654.81;;;9.78;100.00
70445;BME280;57902;49.638;11.070;2023-05-02T07:55:21;98653.84;;;9.84;100.00
70445;BME280;57902;49.638;11.070;2023-05-02T07:57:48;98656.28;;;9.90;100.00
70445;BME280;57902;49.638;11.070;2023-05-02T08:00:14;98664.00;;;9.90;100.00
70445;BME280;57902;49.638;11.070;2023-05-02T08:02:41;98665.72;;;9.91;100.00
70445;BME280;57902;49.638;11.070;2023-05-02T08:05:08;98663.25;;;9.85;100.00
70445;BME280;57902;49.638;11.070;2023-05-02T08:07:35;98673.94;;;10.09;100.00
70445;BME280;57902;49.638;11.070;2023-05-02T08:10:04;98672.16;;;10.11;100.00
70445;BME280;57902;49.638;11.070;2023-05-02T08:12:30;98677.16;;;10.17;100.00
70445;BME280;57902;49.638;11.070;2023-05-02T08:14:57;98677.03;;;10.25;100.00
70445;BME280;57902;49.638;11.070;2023-05-02T08:17:23;98675.91;;;10.38;100.00
70445;BME280;57902;49.638;11.070;2023-05-02T08:19:50;98678.09;;;10.54;100.00
70445;BME280;57902;49.638;11.070;2023-05-02T08:22:16;98682.88;;;10.71;100.00
70445;BME280;57902;49.638;11.070;2023-05-02T08:24:42;98689.38;;;10.87;100.00
70445;BME280;57902;49.638;11.070;2023-05-02T08:27:09;98688.97;;;11.02;100.00
70445;BME280;57902;49.638;11.070;2023-05-02T08:29:35;98692.22;;;11.11;100.00
70445;BME280;57902;49.638;11.070;2023-05-02T08:32:02;98692.78;;;11.22;100.00
70445;BME280;57902;49.638;11.070;2023-05-02T08:34:29;98699.16;;;11.75;100.00
70445;BME280;57902;49.638;11.070;2023-05-02T08:36:55;98701.81;;;12.33;100.00
70445;BME280;57902;49.638;11.070;2023-05-02T08:39:23;98697.97;;;12.74;95.86
70445;BME280;57902;49.638;11.070;2023-05-02T08:41:50;98703.72;;;12.83;92.87
70445;BME280;57902;49.638;11.070;2023-05-02T08:44:17;98698.16;;;13.72;89.97
70445;BME280;57902;49.638;11.070;2023-05-02T08:46:43;98698.59;;;14.31;81.61
70445;BME280;57902;49.638;11.070;2023-05-02T08:49:10;98696.75;;;14.57;82.37
70445;BME280;57902;49.638;11.070;2023-05-02T08:51:38;98701.50;;;15.32;80.33
70445;BME280;57902;49.638;11.070;2023-05-02T08:54:08;98700.38;;;15.79;78.50
70445;BME280;57902;49.638;11.070;2023-05-02T08:56:36;98703.16;;;15.74;71.55
70445;BME280;57902;49.638;11.070;2023-05-02T08:59:03;98705.25;;;15.04;75.20
70445;BME280;57902;49.638;11.070;2023-05-02T09:01:29;98711.06;;;15.32;75.79
70445;BME280;57902;49.638;11.070;2023-05-02T09:03:56;98710.50;;;15.23;76.97
70445;BME280;57902;49.638;11.070;2023-05-02T09:06:25;98710.91;;;15.14;75.32
70445;BME280;57902;49.638;11.070;2023-05-02T09:08:59;98720.59;;;15.52;74.90
70445;BME280;57902;49.638;11.070;2023-05-02T09:11:26;98716.25;;;15.32;72.36
70445;BME280;57902;49.638;11.070;2023-05-02T09:13:52;98720.78;;;15.47;75.43
70445;BME280;57902;49.638;11.070;2023-05-02T09:16:20;98712.47;;;15.80;73.77
70445;BME280;57902;49.638;11.070;2023-05-02T09:18:50;98720.19;;;15.82;72.06
70445;BME280;57902;49.638;11.070;2023-05-02T09:21:22;98722.97;;;15.98;74.48
70445;BME280;57902;49.638;11.070;2023-05-02T09:26:18;98727.16;;;16.00;70.25
70445;BME280;57902;49.638;11.070;2023-05-02T09:29:09;98726.06;;;16.06;67.29
70445;BME280;57902;49.638;11.070;2023-05-02T09:31:35;98719.94;;;16.07;69.08
70445;BME280;57902;49.638;11.070;2023-05-02T09:34:10;98727.59;;;16.10;68.55
70445;BME280;57902;49.638;11.070;2023-05-02T09:36:39;98725.84;;;15.91;69.16
70445;BME280;57902;49.638;11.070;2023-05-02T09:39:14;98725.97;;;16.07;69.01
70445;BME280;57902;49.638;11.070;2023-05-02T09:41:47;98726.44;;;16.36;69.12
70445;BME280;57902;49.638;11.070;2023-05-02T09:44:16;98727.47;;;16.51;70.03
70445;BME280;57902;49.638;11.070;2023-05-02T09:49:14;98737.00;;;15.94;68.34
70445;BME280;57902;49.638;11.070;2023-05-02T09:51:45;98738.66;;;16.15;70.15
70445;BME280;57902;49.638;11.070;2023-05-02T09:54:13;98736.69;;;16.20;67.60
70445;BME280;57902;49.638;11.070;2023-05-02T09:56:55;98730.88;;;16.34;69.58
70445;BME280;57902;49.638;11.070;2023-05-02T09:59:22;98729.16;;;15.95;68.50
70445;BME280;57902;49.638;11.070;2023-05-02T10:01:56;98736.97;;;16.14;68.94
70445;BME280;57902;49.638;11.070;2023-05-02T10:04:24;98739.16;;;15.84;70.85
70445;BME280;57902;49.638;11.070;2023-05-02T10:06:53;98740.47;;;16.13;70.52
70445;BME280;57902;49.638;11.070;2023-05-02T10:09:20;98734.44;;;16.32;69.85
70445;BME280;57902;49.638;11.070;2023-05-02T10:11:52;98738.78;;;16.50;69.38
70445;BME280;57902;49.638;11.070;2023-05-02T10:14:22;98741.72;;;16.61;67.15
70445;BME280;57902;49.638;11.070;2023-05-02T10:17:10;98741.38;;;16.50;68.22
70445;BME280;57902;49.638;11.070;2023-05-02T10:19:49;98736.53;;;16.61;65.16
70445;BME280;57902;49.638;11.070;2023-05-02T10:22:20;98732.66;;;16.51;67.12
70445;BME280;57902;49.638;11.070;2023-05-02T10:24:48;98729.16;;;16.52;67.58
70445;BME280;57902;49.638;11.070;2023-05-02T10:27:15;98736.00;;;16.55;67.24
70445;BME280;57902;49.638;11.070;2023-05-02T10:29:43;98737.13;;;16.49;66.11
70445;BME280;57902;49.638;11.070;2023-05-02T10:32:09;98737.38;;;16.62;67.76
70445;BME280;57902;49.638;11.070;2023-05-02T10:34:37;98734.41;;;16.70;64.01
70445;BME280;57902;49.638;11.070;2023-05-02T10:37:05;98731.97;;;16.67;62.67
70445;BME280;57902;49.638;11.070;2023-05-02T10:39:32;98731.97;;;16.67;62.00
70445;BME280;57902;49.638;11.070;2023-05-02T10:42:08;98728.59;;;16.82;64.00
70445;BME280;57902;49.638;11.070;2023-05-02T10:44:36;98728.84;;;17.14;61.06
70445;BME280;57902;49.638;11.070;2023-05-02T10:47:20;98726.09;;;17.35;60.51
70445;BME280;57902;49.638;11.070;2023-05-02T10:49:59;98717.97;;;17.23;59.82
70445;BME280;57902;49.638;11.070;2023-05-02T10:52:37;98717.66;;;17.29;60.98
70445;BME280;57902;49.638;11.070;2023-05-02T10:55:19;98724.94;;;17.40;58.06
70445;BME280;57902;49.638;11.070;2023-05-02T11:00:32;98718.09;;;17.03;58.57
70445;BME280;57902;49.638;11.070;2023-05-02T11:03:00;98719.78;;;17.56;60.16
70445;BME280;57902;49.638;11.070;2023-05-02T11:05:27;98713.69;;;17.73;57.06
70445;BME280;57902;49.638;11.070;2023-05-02T11:10:48;98709.41;;;17.72;56.08
70445;BME280;57902;49.638;11.070;2023-05-02T11:13:15;98716.72;;;17.65;59.14
70445;BME280;57902;49.638;11.070;2023-05-02T11:18:09;98714.59;;;17.21;58.01
70445;BME280;57902;49.638;11.070;2023-05-02T11:20:41;98704.09;;;17.05;58.35
70445;BME280;57902;49.638;11.070;2023-05-02T11:28:44;98712.59;;;17.09;62.75
70445;BME280;57902;49.638;11.070;2023-05-02T11:34:05;98714.50;;;17.40;60.79
70445;BME280;57902;49.638;11.070;2023-05-02T11:36:33;98704.84;;;17.42;59.76
70445;BME280;57902;49.638;11.070;2023-05-02T11:39:03;98707.53;;;17.41;67.83
70445;BME280;57902;49.638;11.070;2023-05-02T11:41:38;98712.16;;;17.36;66.99
70445;BME280;57902;49.638;11.070;2023-05-02T11:44:05;98702.88;;;17.30;69.30
70445;BME280;57902;49.638;11.070;2023-05-02T11:46:32;98708.31;;;17.43;70.70
70445;BME280;57902;49.638;11.070;2023-05-02T11:48:59;98703.31;;;17.38;67.86
70445;BME280;57902;49.638;11.070;2023-05-02T11:51:29;98703.88;;;17.27;69.87
70445;BME280;57902;49.638;11.070;2023-05-02T11:53:56;98705.78;;;17.06;70.57
70445;BME280;57902;49.638;11.070;2023-05-02T11:56:23;98705.38;;;16.96;70.01
70445;BME280;57902;49.638;11.070;2023-05-02T11:58:58;98712.16;;;16.82;73.31
70445;BME280;57902;49.638;11.070;2023-05-02T12:01:26;98710.00;;;16.91;69.33
70445;BME280;57902;49.638;11.070;2023-05-02T12:04:03;98707.81;;;16.63;71.92
70445;BME280;57902;49.638;11.070;2023-05-02T12:06:30;98725.81;;;16.68;71.22
70445;BME280;57902;49.638;11.070;2023-05-02T12:09:13;98728.19;;;16.55;70.33
70445;BME280;57902;49.638;11.070;2023-05-02T12:11:50;98730.06;;;16.51;70.86
70445;BME280;57902;49.638;11.070;2023-05-02T12:14:25;98726.63;;;16.32;70.90
70445;BME280;57902;49.638;11.070;2023-05-02T12:16:52;98743.16;;;16.12;74.62
70445;BME280;57902;49.638;11.070;2023-05-02T12:19:19;98743.06;;;16.13;72.64
70445;BME280;57902;49.638;11.070;2023-05-02T12:21:49;98737.38;;;16.05;74.27
70445;BME280;57902;49.638;11.070;2023-05-02T12:24:16;98739.06;;;16.06;77.11
70445;BME280;57902;49.638;11.070;2023-05-02T12:26:42;98734.41;;;15.94;82.04
70445;BME280;57902;49.638;11.070;2023-05-02T12:29:09;98733.88;;;15.65;83.32
70445;BME280;57902;49.638;11.070;2023-05-02T12:31:36;98733.59;;;15.72;80.14
70445;BME280;57902;49.638;11.070;2023-05-02T12:34:02;98740.88;;;15.85;79.05
70445;BME280;57902;49.638;11.070;2023-05-02T12:36:29;98754.13;;;16.18;78.81
70445;BME280;57902;49.638;11.070;2023-05-02T12:38:57;98757.63;;;16.55;80.93
70445;BME280;57902;49.638;11.070;2023-05-02T12:44:00;98775.03;;;16.36;69.48
70445;BME280;57902;49.638;11.070;2023-05-02T12:46:27;98777.31;;;16.23;71.20
70445;BME280;57902;49.638;11.070;2023-05-02T12:49:01;98778.81;;;15.89;71.27
70445;BME280;57902;49.638;11.070;2023-05-02T12:51:28;98786.47;;;15.71;70.63
70445;BME280;57902;49.638;11.070;2023-05-02T12:53:56;98797.97;;;15.66;66.83
70445;BME280;57902;49.638;11.070;2023-05-02T12:56:23;98800.84;;;15.17;67.02
70445;BME280;57902;49.638;11.070;2023-05-02T12:58:49;98795.91;;;15.09;67.77
70445;BME280;57902;49.638;11.070;2023-05-02T13:01:16;98795.63;;;14.73;69.31
70445;BME280;57902;49.638;11.070;2023-05-02T13:03:43;98801.72;;;14.72;70.19
70445;BME280;57902;49.638;11.070;2023-05-02T13:06:09;98804.19;;;14.51;69.45
70445;BME280;57902;49.638;11.070;2023-05-02T13:08:36;98807.09;;;14.42;70.12
70445;BME280;57902;49.638;11.070;2023-05-02T13:11:03;98815.19;;;14.34;71.46
70445;BME280;57902;49.638;11.070;2023-05-02T13:13:30;98810.00;;;14.34;71.53
70445;BME280;57902;49.638;11.070;2023-05-02T13:15:57;98811.13;;;14.27;71.60
70445;BME280;57902;49.638;11.070;2023-05-02T13:18:24;98809.03;;;14.13;71.89
70445;BME280;57902;49.638;11.070;2023-05-02T13:20:50;98812.59;;;13.85;72.36
70445;BME280;57902;49.638;11.070;2023-05-02T13:23:17;98813.84;;;13.48;76.02
70445;BME280;57902;49.638;11.070;2023-05-02T13:25:43;98813.47;;;13.59;79.70
70445;BME280;57902;49.638;11.070;2023-05-02T13:28:10;98815.75;;;13.68;83.01
70445;BME280;57902;49.638;11.070;2023-05-02T13:30:36;98812.81;;;13.79;85.27
70445;BME280;57902;49.638;11.070;2023-05-02T13:33:03;98813.53;;;13.82;86.16
70445;BME280;57902;49.638;11.070;2023-05-02T13:35:29;98804.53;;;13.68;91.63
70445;BME280;57902;49.638;11.070;2023-05-02T13:37:58;98795.81;;;13.70;90.05
70445;BME280;57902;49.638;11.070;2023-05-02T13:40:25;98780.00;;;13.53;87.19